Terminal Aerodrome Forecast
Issued by NWS St Louis, MO

Home | Current Version | Previous Version | Text Only | Print | Product List | Glossary On
Versions: 1 2 3 4 5 6 7 8 9 10 11 12 13 14 15
000
FTUS43 KLSX 231700
TAFCOU
TAF
KCOU 231734Z 2318/2418 02010KT P6SM SCT035
      TEMPO 2318/2320 BKN030
     FM240100 04005KT P6SM SKC
     FM241300 08005KT P6SM SKC=

USA.gov is the U.S. government's official web portal to all federal, state and local government web resources and services.